SBOSBO LPA / GCLP
Speedbird OnlineSpeedbird Online LPA / GCLP

Gran Canaria Airport
17:11 24.4°C

Location Gran Canaria, Spain
Latitude: 27.931900024414062
Longitude: -15.38659954071045
Local Time 17:11 on 30 May 2024
UTC +1 hours (Atlantic/Canary)
Currency £1 equals EUR 1.18
METAR GCLP 301530Z 20008KT 140V300 9999 SCT040 25/15 Q1014 WS ALL RWY NOSIG
TAF TAF GCLP 301400Z 3015/3115 01020KT 9999 SCT040 TX27/3114Z TN20/3106Z PROB30 TEMPO 3015/3020 02020G30KT PROB30 TEMPO 3015/3018 18010KT TEMPO 3021/3108 34008KT PROB30 TEMPO 3112/3115 18010KT PROB40 TEMPO 3109/3115 35019G29KT
Weather As Of 30 May 2024 17:11
Description Few clouds
Wind 15 km/h from South (190°)
Cloud Cover 20%
Precipitation Rain: none, Snow: none
Sunrise 07:06
Sunset 20:52
NOTAM 153 active NOTAM
Rotations During the last 90 days there were
76 flights from LGW
1 flights from LPA
73 flights to LGW
1 flights to
1 flights to LPA
Lounges Sala Galdos Lounge, Depatures Area
Web Airport Website | Wikipedia
Codes IATA: LPA
ICAO: GCLP
Altitude 24 Meter / 78 Feet
Distance 2,924 KM / 1,817 Miles
from London.
Runways
RunwayLength (m)Surface
03L3100Asphalt
03R3100Asphalt
21L3100Asphalt
21R3100Asphalt
Radio
TypeDescriptionFrequency
APPAPP120.9
ATISATIS118.6
GNDGND121.7
TWRTWR118.3
Live ATC



Support Speedbird Online

© 2017-2024 Speedbird Online